Time;durP1;ratioP1;P1;durP2;ratioP2;P2;SDS_P1;SDS_P2;PMS_P1;PMS_P2;Temp;Humidity;BMP_temperature;BMP_pressure;BME280_temperature;BME280_humidity;BME280_pressure;Samples;Min_cycle;Max_cycle;Signal;HPM_P1;HPM_P2
2021/12/22 00:00:49;;;;;;;213.20;162.43;;;22.30;38.30;;;;;;4339307;61;21565;-35
2021/12/22 00:05:51;;;;;;;211.98;164.20;;;22.30;38.20;;;;;;4349100;60;21067;-35
2021/12/22 00:10:53;;;;;;;213.73;164.50;;;22.30;38.10;;;;;;4394207;60;21091;-37
2021/12/22 00:15:54;;;;;;;205.05;157.02;;;22.30;38.10;;;;;;4372774;60;21602;-36
2021/12/22 00:20:54;;;;;;;201.90;154.90;;;22.30;38.70;;;;;;4342591;60;21131;-35
2021/12/22 00:25:56;;;;;;;203.20;158.43;;;22.30;37.70;;;;;;4352336;60;21132;-34
2021/12/22 00:30:57;;;;;;;206.52;157.93;;;22.30;38.10;;;;;;4358251;60;21063;-34
2021/12/22 00:35:59;;;;;;;199.55;150.70;;;22.30;38.10;;;;;;4338430;64;21064;-35
2021/12/22 00:41:00;;;;;;;201.15;153.50;;;22.30;38.00;;;;;;4356532;60;21529;-36
2021/12/22 00:46:01;;;;;;;205.27;155.45;;;22.30;38.00;;;;;;4375835;60;21047;-36
2021/12/22 00:51:02;;;;;;;205.90;153.38;;;22.30;37.90;;;;;;4339004;64;21525;-34
2021/12/22 00:56:04;;;;;;;201.12;151.37;;;22.30;37.90;;;;;;4338694;64;21091;-35
2021/12/22 01:01:05;;;;;;;196.85;148.02;;;22.30;37.90;;;;;;4350269;60;21497;-34
2021/12/22 01:06:06;;;;;;;196.98;149.35;;;22.20;37.80;;;;;;4343897;60;21023;-34
2021/12/22 01:11:08;;;;;;;199.27;148.52;;;22.30;37.80;;;;;;4338867;64;21052;-35
2021/12/22 01:16:09;;;;;;;200.68;147.30;;;22.30;37.80;;;;;;4338970;60;21573;-35
2021/12/22 01:27:04;;;;;;;191.88;139.82;;;22.30;37.70;;;;;;4344391;60;21040;-35
2021/12/22 01:32:09;;;;;;;196.87;146.75;;;22.30;37.70;;;;;;4360046;60;21577;-30
2021/12/22 01:37:10;;;;;;;195.90;145.23;;;22.30;37.70;;;;;;4365585;60;21588;-35
2021/12/22 01:42:11;;;;;;;198.62;145.40;;;22.20;37.60;;;;;;4344830;60;21059;-35
2021/12/22 01:52:31;;;;;;;192.00;141.93;;;22.30;37.60;;;;;;4339102;60;21111;-36
2021/12/22 01:57:42;;;;;;;197.25;144.70;;;22.30;37.60;;;;;;4342206;60;21637;-36
2021/12/22 02:02:43;;;;;;;199.82;146.00;;;22.30;37.60;;;;;;4338950;61;21889;-37
2021/12/22 02:07:44;;;;;;;197.75;142.93;;;22.30;37.60;;;;;;4338915;64;21071;-34
2021/12/22 02:12:50;;;;;;;190.00;137.75;;;22.30;37.50;;;;;;4388352;60;21550;-37
2021/12/22 02:17:55;;;;;;;194.68;140.27;;;22.30;37.50;;;;;;4345066;60;21616;-36
2021/12/22 02:22:57;;;;;;;191.23;139.32;;;22.30;37.50;;;;;;4339267;64;21544;-31
2021/12/22 02:27:59;;;;;;;203.15;146.93;;;22.20;37.40;;;;;;4373420;60;21521;-35
2021/12/22 02:33:21;;;;;;;194.07;142.15;;;22.30;37.50;;;;;;4367360;60;21626;-35
2021/12/22 02:38:22;;;;;;;193.85;139.98;;;22.30;37.40;;;;;;4351873;60;21549;-34
2021/12/22 02:43:24;;;;;;;189.27;139.93;;;22.30;37.40;;;;;;4352110;60;21079;-36
2021/12/22 02:48:32;;;;;;;184.40;131.48;;;22.30;37.40;;;;;;4372911;60;21510;-37
2021/12/22 02:53:47;;;;;;;195.30;141.30;;;22.30;37.40;;;;;;4338962;64;21055;-32
2021/12/22 02:59:02;;;;;;;191.23;140.18;;;22.30;37.30;;;;;;4351274;60;21572;-33
2021/12/22 03:04:10;;;;;;;192.70;138.18;;;22.30;37.30;;;;;;4442305;60;21071;-37
2021/12/22 03:09:26;;;;;;;189.10;137.27;;;22.30;37.30;;;;;;4382403;60;21099;-33
2021/12/22 03:14:31;;;;;;;185.40;134.52;;;22.30;37.30;;;;;;4352748;60;21072;-31
2021/12/22 03:19:34;;;;;;;190.20;136.27;;;22.30;37.30;;;;;;4339032;64;21064;-36
2021/12/22 03:24:39;;;;;;;186.15;135.80;;;22.30;37.30;;;;;;4345085;60;22390;-34
2021/12/22 03:29:40;;;;;;;185.37;135.15;;;22.30;37.20;;;;;;4338627;64;21597;-34
2021/12/22 03:34:41;;;;;;;183.82;135.37;;;22.30;37.20;;;;;;4341516;60;21637;-34
2021/12/22 03:39:42;;;;;;;182.10;128.95;;;22.30;37.20;;;;;;4353145;60;21047;-35
2021/12/22 03:44:43;;;;;;;183.20;134.87;;;22.30;37.20;;;;;;4338573;64;21527;-38
2021/12/22 03:49:44;;;;;;;184.68;133.48;;;22.30;37.10;;;;;;4356401;60;21558;-37
2021/12/22 03:54:45;;;;;;;184.98;133.30;;;22.30;37.10;;;;;;4346924;60;21147;-32
2021/12/22 03:59:46;;;;;;;176.02;129.48;;;22.30;37.10;;;;;;4349819;60;21052;-35
2021/12/22 04:04:49;;;;;;;178.02;126.70;;;22.30;37.10;;;;;;4338845;64;21246;-37
2021/12/22 04:09:52;;;;;;;176.85;128.10;;;22.30;37.00;;;;;;4338797;64;21600;-35
2021/12/22 04:14:53;;;;;;;185.93;131.30;;;22.30;37.10;;;;;;4347851;60;21585;-35
2021/12/22 04:19:54;;;;;;;174.30;128.62;;;22.30;37.00;;;;;;4346019;60;21032;-31
2021/12/22 04:24:55;;;;;;;175.70;127.50;;;22.30;37.00;;;;;;4368581;60;21549;-35
2021/12/22 04:29:56;;;;;;;180.32;128.15;;;22.40;37.00;;;;;;4355252;60;21064;-36
2021/12/22 04:34:56;;;;;;;172.65;126.55;;;22.40;36.90;;;;;;4347525;60;21191;-33
2021/12/22 04:39:57;;;;;;;168.77;124.97;;;22.40;36.80;;;;;;4338550;64;21055;-34
2021/12/22 04:45:00;;;;;;;177.27;130.05;;;22.40;36.80;;;;;;4340170;60;21088;-33
2021/12/22 04:50:03;;;;;;;171.50;125.87;;;22.50;36.80;;;;;;4384335;60;21596;-38
2021/12/22 04:55:04;;;;;;;174.45;125.60;;;22.50;36.80;;;;;;4344241;60;21549;-34
2021/12/22 05:00:09;;;;;;;169.55;124.15;;;22.50;36.80;;;;;;4353804;60;21569;-36
2021/12/22 05:05:11;;;;;;;168.87;121.60;;;22.50;36.80;;;;;;4349737;60;21584;-34
2021/12/22 05:10:12;;;;;;;164.77;121.22;;;22.50;36.80;;;;;;4357516;60;21064;-35
2021/12/22 05:15:17;;;;;;;166.80;122.37;;;22.60;36.80;;;;;;4359964;60;21513;-33
2021/12/22 05:20:18;;;;;;;161.85;117.60;;;22.60;37.50;;;;;;4358596;60;21063;-37
2021/12/22 05:25:19;;;;;;;165.85;120.25;;;22.60;36.80;;;;;;4385391;60;21217;-30
2021/12/22 05:30:20;;;;;;;160.12;116.37;;;22.60;36.80;;;;;;4368723;60;21036;-35
2021/12/22 05:35:22;;;;;;;161.20;118.07;;;22.60;36.90;;;;;;4391457;60;21581;-34
2021/12/22 05:40:27;;;;;;;158.48;116.43;;;22.60;37.50;;;;;;4370704;60;21150;-35
2021/12/22 05:45:28;;;;;;;159.15;117.62;;;22.60;36.90;;;;;;4349079;60;21557;-34
2021/12/22 05:50:29;;;;;;;160.88;119.37;;;22.60;37.00;;;;;;4340299;64;21040;-35
2021/12/22 05:55:30;;;;;;;157.60;117.37;;;22.60;36.90;;;;;;4400409;60;21084;-35
2021/12/22 06:00:31;;;;;;;155.12;114.35;;;22.60;37.00;;;;;;4350722;60;21124;-36
2021/12/22 06:05:32;;;;;;;153.27;113.05;;;22.60;37.00;;;;;;4351563;60;21115;-31
2021/12/22 06:10:34;;;;;;;159.00;114.90;;;22.60;37.00;;;;;;4341351;60;21459;-34
2021/12/22 06:15:37;;;;;;;154.95;114.43;;;22.60;37.10;;;;;;4338922;64;21514;-35
2021/12/22 06:20:38;;;;;;;157.20;113.90;;;22.70;37.10;;;;;;4349626;60;21099;-35
2021/12/22 06:25:39;;;;;;;156.12;114.03;;;22.70;37.10;;;;;;4346155;60;21151;-35
2021/12/22 06:30:40;;;;;;;151.37;113.37;;;22.60;37.10;;;;;;4338687;61;21158;-36
2021/12/22 06:35:41;;;;;;;151.65;111.82;;;22.70;37.10;;;;;;4339624;60;21126;-34
2021/12/22 06:40:42;;;;;;;149.95;112.05;;;22.70;37.10;;;;;;4361292;60;21072;-36
2021/12/22 06:45:44;;;;;;;150.45;111.40;;;22.70;37.10;;;;;;4372066;60;22176;-37
2021/12/22 06:50:45;;;;;;;151.02;111.93;;;22.70;37.10;;;;;;4355808;60;21047;-36
2021/12/22 06:55:46;;;;;;;149.23;110.93;;;22.70;37.20;;;;;;4372151;60;21553;-34
2021/12/22 07:00:46;;;;;;;144.05;105.87;;;22.70;37.10;;;;;;4349359;60;21031;-35
2021/12/22 07:05:47;;;;;;;152.30;110.78;;;22.70;37.10;;;;;;4338601;61;21100;-36
2021/12/22 07:10:49;;;;;;;152.02;109.80;;;22.70;37.10;;;;;;4386739;60;21529;-37
2021/12/22 07:15:50;;;;;;;146.18;107.25;;;22.70;37.10;;;;;;4355908;60;21167;-32
2021/12/22 07:20:51;;;;;;;145.65;106.68;;;22.70;37.10;;;;;;4355304;60;21091;-35
2021/12/22 07:25:52;;;;;;;146.48;107.97;;;22.70;37.10;;;;;;4358584;60;21565;-36
2021/12/22 07:30:52;;;;;;;155.35;111.55;;;22.70;37.10;;;;;;4367833;60;21084;-29
2021/12/22 07:36:02;;;;;;;151.85;112.97;;;22.70;37.10;;;;;;4343261;60;21103;-34
2021/12/22 07:41:04;;;;;;;155.65;111.78;;;22.70;37.10;;;;;;4406759;60;21075;-37
2021/12/22 07:46:08;;;;;;;152.20;113.20;;;22.70;37.10;;;;;;4343824;60;22011;-38
2021/12/22 07:51:09;;;;;;;152.05;112.93;;;22.70;37.10;;;;;;4358059;60;21591;-35
2021/12/22 07:56:10;;;;;;;148.13;108.90;;;22.70;37.10;;;;;;4341826;60;21131;-35
2021/12/22 08:01:11;;;;;;;146.90;108.95;;;22.70;37.00;;;;;;4338766;64;21063;-35
2021/12/22 08:06:13;;;;;;;152.10;109.80;;;22.70;37.00;;;;;;4349288;60;21526;-34
2021/12/22 08:11:14;;;;;;;147.45;108.90;;;22.70;37.00;;;;;;4383826;60;21083;-35
2021/12/22 08:16:15;;;;;;;153.50;113.88;;;22.70;37.00;;;;;;4338207;64;21510;-36
2021/12/22 08:21:16;;;;;;;159.02;113.43;;;22.70;36.90;;;;;;4343085;60;21076;-36
2021/12/22 08:26:17;;;;;;;162.57;117.90;;;22.70;36.90;;;;;;4340921;60;21063;-35
2021/12/22 08:31:18;;;;;;;153.25;112.18;;;22.70;36.90;;;;;;4372998;60;21060;-35
2021/12/22 08:41:40;;;;;;;160.20;118.37;;;22.80;36.90;;;;;;4338910;60;21167;-32
2021/12/22 08:46:43;;;;;;;166.10;120.80;;;22.80;36.90;;;;;;4338826;64;22104;-37
2021/12/22 08:51:45;;;;;;;163.18;117.07;;;22.80;36.80;;;;;;4345345;60;21142;-36
2021/12/22 08:56:46;;;;;;;165.88;121.37;;;22.80;36.80;;;;;;4350159;60;21076;-35
2021/12/22 09:01:47;;;;;;;167.25;122.60;;;22.80;36.70;;;;;;4344162;60;21043;-34
2021/12/22 09:06:49;;;;;;;170.43;124.85;;;22.80;36.70;;;;;;4374384;60;21064;-33
2021/12/22 09:11:50;;;;;;;169.15;123.90;;;22.80;36.70;;;;;;4394395;60;21052;-43
2021/12/22 09:16:52;;;;;;;173.48;125.90;;;22.80;36.70;;;;;;4348521;60;21569;-36
2021/12/22 09:21:53;;;;;;;167.50;123.53;;;22.80;36.70;;;;;;4344749;60;21095;-35
2021/12/22 09:26:54;;;;;;;176.43;127.60;;;22.90;36.80;;;;;;4338965;64;21590;-31
2021/12/22 09:31:56;;;;;;;186.40;133.75;;;23.00;36.80;;;;;;4349869;60;21081;-35
2021/12/22 09:36:57;;;;;;;183.68;133.90;;;23.00;36.50;;;;;;4339689;60;21561;-35
2021/12/22 09:41:58;;;;;;;182.32;131.27;;;23.00;36.50;;;;;;4352644;60;21097;-34
2021/12/22 09:47:00;;;;;;;181.55;133.23;;;23.10;37.60;;;;;;4369290;60;21686;-34
2021/12/22 09:52:18;;;;;;;382.98;332.60;;;23.10;37.00;;;;;;4373557;60;21542;-31
2021/12/22 09:57:20;;;;;;;354.52;303.48;;;23.10;37.70;;;;;;4348056;60;21136;-35
2021/12/22 10:02:26;;;;;;;369.48;319.15;;;23.10;38.20;;;;;;4339626;60;21088;-35
2021/12/22 10:07:30;;;;;;;357.87;307.17;;;23.00;38.40;;;;;;4347962;60;21541;-35
2021/12/22 10:12:31;;;;;;;355.85;305.80;;;23.00;38.70;;;;;;4341218;60;22022;-32
2021/12/22 10:17:42;;;;;;;352.30;304.27;;;23.00;38.80;;;;;;4393346;60;21104;-36
2021/12/22 10:22:45;;;;;;;550.00;491.40;;;23.00;38.90;;;;;;4366754;60;21072;-35
2021/12/22 10:28:03;;;;;;;570.95;511.02;;;23.00;39.10;;;;;;4363294;60;21067;-35
2021/12/22 10:33:14;;;;;;;570.15;509.98;;;23.00;39.20;;;;;;4340364;60;21548;-34
2021/12/22 10:38:20;;;;;;;563.10;504.02;;;23.00;39.40;;;;;;4362225;60;21545;-35
2021/12/22 10:43:29;;;;;;;562.62;503.38;;;23.00;39.30;;;;;;4338521;61;21589;-38
2021/12/22 10:53:57;;;;;;;529.30;473.13;;;23.10;39.10;;;;;;4338726;60;21597;-32
2021/12/22 10:59:40;;;;;;;516.10;460.42;;;23.20;39.30;;;;;;4366945;60;21068;-38
2021/12/22 11:04:45;;;;;;;689.33;617.50;;;23.20;39.40;;;;;;4369031;60;21107;-33
2021/12/22 11:09:46;;;;;;;692.75;620.75;;;23.30;39.50;;;;;;4340866;60;21075;-32
2021/12/22 11:14:47;;;;;;;685.37;614.83;;;23.30;39.50;;;;;;4340792;60;21072;-31
2021/12/22 11:20:06;;;;;;;673.17;603.60;;;23.30;39.60;;;;;;4353742;60;21545;-29
2021/12/22 11:25:11;;;;;;;644.60;577.53;;;23.30;39.70;;;;;;4346810;60;21577;-33
2021/12/22 11:30:12;;;;;;;639.30;573.17;;;23.30;39.80;;;;;;4352161;60;21533;-32
2021/12/22 11:35:14;;;;;;;635.67;570.00;;;23.30;39.90;;;;;;4338913;60;21066;-34
2021/12/22 11:40:21;;;;;;;623.40;558.87;;;23.30;39.90;;;;;;4368032;60;21052;-35
2021/12/22 11:45:23;;;;;;;;;;;23.40;39.90;;;;;;4345778;60;21075;-30
2021/12/22 11:50:29;;;;;;;613.85;550.05;;;23.40;39.90;;;;;;4339485;64;20108;-34
2021/12/22 11:56:50;;;;;;;608.55;545.83;;;23.40;40.00;;;;;;4354388;60;21621;-37
2021/12/22 12:02:19;;;;;;;574.67;513.97;;;23.40;40.00;;;;;;4339578;60;21100;-33
2021/12/22 12:07:44;;;;;;;584.35;523.25;;;23.40;40.00;;;;;;4360656;60;21052;-31
2021/12/22 12:12:46;;;;;;;582.85;522.08;;;23.40;40.00;;;;;;4375449;60;21047;-35
2021/12/22 12:25:44;;;;;;;559.53;501.35;;;23.40;40.00;;;;;;4353523;60;21103;-34
2021/12/22 12:30:53;;;;;;;537.20;480.70;;;23.50;40.10;;;;;;4340082;60;21139;-30
2021/12/22 12:36:13;;;;;;;533.55;476.98;;;23.50;40.00;;;;;;4338076;64;21075;-29
2021/12/22 12:41:23;;;;;;;528.30;472.25;;;23.50;40.00;;;;;;4338382;64;21042;-33
2021/12/22 12:46:35;;;;;;;518.00;463.17;;;23.50;40.00;;;;;;4346559;60;21577;-33
2021/12/22 12:52:10;;;;;;;507.42;453.40;;;23.50;40.00;;;;;;4352036;60;22460;-36
2021/12/22 12:57:22;;;;;;;507.08;452.98;;;23.50;40.00;;;;;;4349498;60;21135;-31
2021/12/22 13:02:29;;;;;;;496.27;443.05;;;23.50;40.10;;;;;;4340986;60;21047;-35
2021/12/22 13:07:32;;;;;;;498.58;445.38;;;23.50;40.00;;;;;;4346878;60;21545;-39
2021/12/22 13:13:40;;;;;;;492.80;439.77;;;23.50;40.10;;;;;;4339142;64;21099;-34
2021/12/22 13:18:40;;;;;;;492.87;440.17;;;23.40;40.00;;;;;;4343350;60;21601;-39
2021/12/22 13:23:41;;;;;;;475.58;424.15;;;23.40;40.00;;;;;;4342591;60;21072;-34
2021/12/22 13:28:43;;;;;;;374.42;309.48;;;23.20;40.00;;;;;;4383197;60;21593;-30
2021/12/22 13:33:51;;;;;;;322.75;257.65;;;23.10;36.90;;;;;;4435273;60;21115;-35
2021/12/22 13:38:56;;;;;;;327.02;258.30;;;22.60;32.00;;;;;;4347212;60;21589;-32
2021/12/22 13:44:06;;;;;;;342.62;277.00;;;22.40;34.40;;;;;;4351869;60;21687;-34
2021/12/22 13:49:09;;;;;;;340.00;272.17;;;22.60;34.80;;;;;;4338879;64;21581;-32
2021/12/22 13:54:17;;;;;;;341.52;277.95;;;22.60;35.20;;;;;;4363016;60;21528;-32
2021/12/22 13:59:25;;;;;;;328.37;271.92;;;22.60;35.50;;;;;;4371422;60;21543;-36
2021/12/22 14:04:38;;;;;;;317.70;258.02;;;22.60;35.90;;;;;;4379683;60;21140;-36
2021/12/22 14:09:44;;;;;;;329.87;273.08;;;22.60;36.30;;;;;;4380902;60;21625;-35
2021/12/22 14:14:47;;;;;;;326.30;265.80;;;22.50;37.30;;;;;;4355299;60;21059;-38
2021/12/22 14:20:37;;;;;;;323.80;267.67;;;22.50;36.70;;;;;;4339215;64;21081;-35
2021/12/22 14:25:39;;;;;;;323.85;268.33;;;22.40;37.00;;;;;;4357608;60;21051;-33
2021/12/22 14:30:41;;;;;;;329.35;275.92;;;22.40;37.20;;;;;;4377308;60;21077;-30
2021/12/22 14:35:55;;;;;;;318.23;263.35;;;22.30;37.30;;;;;;4349361;60;21155;-38
2021/12/22 14:41:02;;;;;;;328.45;270.37;;;22.30;37.50;;;;;;4357440;60;21111;-35
2021/12/22 14:46:04;;;;;;;300.50;245.65;;;22.20;37.60;;;;;;4363827;60;21119;-38
2021/12/22 14:51:11;;;;;;;321.90;265.52;;;22.20;37.80;;;;;;4349711;60;21063;-38
2021/12/22 14:56:25;;;;;;;319.42;266.55;;;22.10;37.80;;;;;;4353332;60;21063;-32
2021/12/22 15:01:27;;;;;;;308.90;254.75;;;22.10;38.00;;;;;;4339600;60;21561;-38
2021/12/22 15:06:28;;;;;;;308.42;254.27;;;22.00;38.00;;;;;;4345545;60;21088;-36
2021/12/22 15:11:30;;;;;;;303.02;250.38;;;22.00;38.10;;;;;;4338666;64;21935;-36
2021/12/22 15:16:32;;;;;;;307.27;255.20;;;21.90;38.20;;;;;;4338839;64;21111;-36
2021/12/22 15:21:33;;;;;;;306.90;254.00;;;21.90;38.30;;;;;;4340284;60;21169;-34
2021/12/22 15:26:34;;;;;;;303.25;254.65;;;21.90;38.40;;;;;;4371772;60;21525;-39
2021/12/22 15:31:35;;;;;;;298.27;249.65;;;21.90;38.40;;;;;;4368308;60;21122;-37
2021/12/22 15:36:35;;;;;;;299.48;244.75;;;21.80;39.00;;;;;;4380910;60;21108;-38
2021/12/22 15:41:36;;;;;;;294.23;240.27;;;21.80;38.50;;;;;;4344989;60;21060;-36
2021/12/22 15:46:37;;;;;;;296.87;244.55;;;21.80;38.60;;;;;;4358464;60;21055;-37
2021/12/22 15:51:38;;;;;;;299.17;246.20;;;21.80;39.30;;;;;;4352489;60;21545;-36
2021/12/22 15:56:39;;;;;;;283.87;238.10;;;21.80;38.70;;;;;;4366945;60;21586;-35
2021/12/22 16:01:40;;;;;;;290.85;240.15;;;21.70;38.70;;;;;;4347206;60;21473;-37
2021/12/22 16:06:41;;;;;;;288.27;241.55;;;21.70;38.70;;;;;;4342332;60;21059;-35
2021/12/22 16:11:42;;;;;;;293.65;240.70;;;21.70;38.80;;;;;;4377607;60;21582;-38
2021/12/22 16:16:42;;;;;;;266.25;214.57;;;21.70;38.70;;;;;;4348802;60;21067;-36
2021/12/22 16:21:43;;;;;;;279.40;230.82;;;21.60;38.90;;;;;;4342560;60;21100;-35
2021/12/22 16:26:44;;;;;;;265.08;220.00;;;21.60;38.90;;;;;;4338640;61;21028;-37
2021/12/22 16:31:45;;;;;;;275.90;230.48;;;21.60;39.00;;;;;;4338837;61;21103;-36
2021/12/22 16:36:46;;;;;;;273.27;229.85;;;21.60;39.00;;;;;;4350464;60;21100;-36
2021/12/22 16:41:47;;;;;;;276.77;230.02;;;21.60;38.90;;;;;;4338929;61;21642;-37
2021/12/22 16:46:48;;;;;;;277.70;229.35;;;21.50;38.90;;;;;;4417346;60;21075;-37
2021/12/22 16:51:49;;;;;;;266.90;221.18;;;21.50;39.10;;;;;;4352540;60;21082;-27
2021/12/22 16:56:50;;;;;;;268.80;221.40;;;21.50;39.10;;;;;;4359203;60;21189;-37
2021/12/22 17:01:51;;;;;;;278.50;227.15;;;21.50;39.10;;;;;;4368864;60;21091;-37
2021/12/22 17:06:54;;;;;;;270.92;222.82;;;21.50;39.20;;;;;;4339014;60;21079;-39
2021/12/22 17:11:55;;;;;;;271.08;227.68;;;21.50;39.10;;;;;;4338668;64;21537;-36
2021/12/22 17:17:05;;;;;;;273.23;228.80;;;21.50;39.20;;;;;;4358547;60;21112;-38
2021/12/22 17:22:05;;;;;;;263.70;216.73;;;21.40;39.20;;;;;;4358574;60;21083;-37
2021/12/22 17:27:06;;;;;;;265.83;216.30;;;21.40;39.30;;;;;;4338816;64;21588;-39
2021/12/22 17:32:07;;;;;;;263.92;214.35;;;21.40;39.20;;;;;;4338725;62;21171;-34
2021/12/22 17:37:09;;;;;;;272.00;222.95;;;21.40;39.30;;;;;;4394362;60;21056;-29
2021/12/22 17:42:10;;;;;;;273.58;222.57;;;21.40;39.20;;;;;;4362337;60;21569;-37
2021/12/22 17:47:10;;;;;;;264.17;215.37;;;21.40;39.30;;;;;;4361681;60;21092;-36
2021/12/22 17:52:11;;;;;;;253.88;204.25;;;21.40;39.70;;;;;;4356665;60;21048;-34
2021/12/22 17:57:12;;;;;;;266.75;217.13;;;21.40;39.30;;;;;;4338700;64;21172;-38
2021/12/22 18:02:13;;;;;;;266.40;220.35;;;21.30;39.30;;;;;;4362970;60;21525;-35
2021/12/22 18:07:14;;;;;;;259.70;214.65;;;21.30;39.30;;;;;;4342140;60;21064;-38
2021/12/22 18:12:15;;;;;;;256.23;203.82;;;21.30;39.40;;;;;;4339011;61;21052;-37
2021/12/22 18:17:16;;;;;;;263.58;216.18;;;21.30;39.50;;;;;;4353977;60;21116;-37
2021/12/22 18:22:17;;;;;;;251.43;197.87;;;21.30;39.40;;;;;;4342438;60;21608;-38
2021/12/22 18:27:18;;;;;;;258.30;213.12;;;21.30;39.40;;;;;;4344262;60;21638;-31
2021/12/22 18:32:19;;;;;;;257.00;206.00;;;21.30;39.50;;;;;;4386390;60;21128;-36
2021/12/22 18:37:25;;;;;;;254.27;205.10;;;21.30;39.50;;;;;;4337994;64;21082;-37
2021/12/22 18:42:27;;;;;;;262.50;213.00;;;21.20;39.50;;;;;;4339356;64;21622;-36
2021/12/22 18:47:27;;;;;;;259.87;208.70;;;21.20;39.50;;;;;;4339084;64;21051;-39
2021/12/22 18:52:28;;;;;;;254.65;204.25;;;21.20;39.50;;;;;;4354340;60;21067;-36
2021/12/22 18:57:29;;;;;;;247.90;194.18;;;21.20;39.50;;;;;;4386303;60;21044;-33
2021/12/22 19:02:30;;;;;;;260.90;209.77;;;21.20;39.50;;;;;;4356399;60;21052;-36
2021/12/22 19:07:34;;;;;;;264.17;213.95;;;21.20;39.50;;;;;;4389455;60;21122;-35
2021/12/22 19:12:35;;;;;;;246.43;199.12;;;21.20;39.60;;;;;;4358601;60;21545;-35
2021/12/22 19:17:37;;;;;;;261.45;210.52;;;21.20;39.50;;;;;;4385328;60;21592;-35
2021/12/22 19:22:38;;;;;;;264.30;211.27;;;21.10;39.60;;;;;;4366275;60;21082;-35
2021/12/22 19:27:41;;;;;;;246.37;199.95;;;21.10;39.60;;;;;;4356556;60;21513;-34
2021/12/22 19:32:42;;;;;;;265.62;211.95;;;21.10;39.60;;;;;;4355723;60;21544;-37
2021/12/22 19:37:43;;;;;;;257.12;211.10;;;21.10;39.60;;;;;;4379613;60;21075;-35
2021/12/22 19:42:46;;;;;;;255.37;208.38;;;21.10;39.70;;;;;;4376705;60;21056;-37
2021/12/22 19:47:47;;;;;;;255.55;208.27;;;21.10;39.70;;;;;;4389144;60;21104;-35
2021/12/22 19:52:49;;;;;;;255.50;208.35;;;21.10;39.70;;;;;;4340574;60;21083;-36
2021/12/22 19:57:50;;;;;;;250.35;195.32;;;21.10;39.80;;;;;;4348205;60;21557;-34
2021/12/22 20:02:51;;;;;;;257.73;208.02;;;21.10;39.70;;;;;;4338856;64;21083;-38
2021/12/22 20:07:52;;;;;;;254.35;206.50;;;21.00;39.70;;;;;;4339020;64;21091;-34
2021/12/22 20:12:54;;;;;;;259.25;208.57;;;21.00;39.70;;;;;;4352919;60;21266;-37
2021/12/22 20:17:55;;;;;;;259.20;206.50;;;21.10;39.80;;;;;;4373353;60;21640;-36
2021/12/22 20:22:57;;;;;;;249.80;199.80;;;21.00;39.70;;;;;;4372229;60;21182;-36
2021/12/22 20:27:58;;;;;;;254.32;204.32;;;21.00;39.70;;;;;;4353429;60;21077;-37
2021/12/22 20:32:59;;;;;;;245.45;193.15;;;21.00;39.80;;;;;;4373940;60;21526;-35
2021/12/22 20:38:02;;;;;;;235.88;186.90;;;21.00;39.70;;;;;;4359022;60;21190;-34
2021/12/22 20:43:05;;;;;;;245.07;192.87;;;21.00;39.80;;;;;;4371121;60;21520;-35
2021/12/22 20:48:06;;;;;;;245.20;190.65;;;21.00;39.80;;;;;;4346884;60;21509;-34
2021/12/22 20:53:09;;;;;;;237.52;186.95;;;21.00;39.80;;;;;;4342195;60;21051;-35
2021/12/22 20:58:10;;;;;;;240.73;189.85;;;21.00;39.80;;;;;;4338678;64;21549;-36
2021/12/22 21:03:12;;;;;;;244.55;198.15;;;21.00;39.80;;;;;;4352083;60;21036;-32
2021/12/22 21:08:13;;;;;;;242.57;196.40;;;20.90;39.70;;;;;;4339283;64;21632;-36
2021/12/22 21:13:14;;;;;;;245.90;198.52;;;20.90;39.80;;;;;;4359229;60;21119;-35
2021/12/22 21:18:15;;;;;;;240.87;191.40;;;20.90;39.80;;;;;;4366097;60;21545;-35
2021/12/22 21:23:16;;;;;;;247.02;192.50;;;20.90;39.90;;;;;;4373656;60;21549;-35
2021/12/22 21:28:17;;;;;;;237.70;189.52;;;20.90;39.80;;;;;;4339156;64;21621;-37
2021/12/22 21:33:18;;;;;;;239.27;184.25;;;20.90;39.90;;;;;;4338943;60;21132;-36
2021/12/22 21:38:20;;;;;;;239.73;191.45;;;20.90;39.90;;;;;;4359773;60;21678;-34
2021/12/22 21:43:21;;;;;;;234.27;186.02;;;20.90;39.90;;;;;;4368943;60;21597;-36
2021/12/22 21:48:22;;;;;;;234.95;187.77;;;20.90;39.80;;;;;;4338732;64;21175;-37
2021/12/22 21:53:23;;;;;;;233.32;185.98;;;20.90;39.90;;;;;;4346612;60;21052;-37
2021/12/22 21:58:24;;;;;;;232.00;180.35;;;20.90;39.90;;;;;;4371696;60;21526;-36
2021/12/22 22:03:26;;;;;;;230.68;173.55;;;20.90;39.90;;;;;;4347452;60;21063;-32
2021/12/22 22:08:27;;;;;;;234.35;186.75;;;20.90;39.90;;;;;;4358126;60;21587;-36
2021/12/22 22:13:28;;;;;;;234.90;187.62;;;20.80;39.80;;;;;;4344528;60;21111;-34
2021/12/22 22:18:29;;;;;;;231.23;181.65;;;20.80;39.80;;;;;;4345924;60;21191;-35
2021/12/22 22:23:30;;;;;;;225.32;177.93;;;20.80;39.80;;;;;;4357239;60;21087;-37
2021/12/22 22:28:31;;;;;;;230.02;175.43;;;20.80;39.80;;;;;;4348125;60;21056;-35
2021/12/22 22:33:31;;;;;;;230.25;178.12;;;20.80;39.70;;;;;;4360025;60;21060;-37
2021/12/22 22:38:35;;;;;;;211.90;160.05;;;20.80;39.70;;;;;;4360198;60;21557;-38
2021/12/22 22:43:36;;;;;;;226.15;179.15;;;20.80;39.70;;;;;;4392390;60;21618;-35
2021/12/22 22:48:37;;;;;;;225.15;178.82;;;20.80;39.70;;;;;;4345221;60;21149;-35
2021/12/22 22:53:38;;;;;;;213.48;160.85;;;20.80;39.70;;;;;;4370273;60;21052;-37
2021/12/22 22:58:39;;;;;;;223.77;173.27;;;20.80;39.70;;;;;;4338637;61;21866;-37
2021/12/22 23:03:40;;;;;;;212.65;164.95;;;20.80;39.60;;;;;;4339028;64;21063;-32
2021/12/22 23:08:41;;;;;;;212.50;161.82;;;20.80;39.70;;;;;;4339014;64;21112;-38
2021/12/22 23:13:46;;;;;;;215.10;166.48;;;20.80;39.60;;;;;;4369576;60;21833;-35
2021/12/22 23:18:47;;;;;;;203.40;155.15;;;20.70;39.60;;;;;;4339285;64;21646;-38
2021/12/22 23:23:48;;;;;;;208.60;158.12;;;20.70;39.60;;;;;;4338214;60;21071;-36
2021/12/22 23:28:49;;;;;;;202.40;151.50;;;20.70;39.50;;;;;;4361736;60;21183;-37
2021/12/22 23:33:50;;;;;;;208.55;160.90;;;20.70;39.50;;;;;;4341298;60;21056;-37
2021/12/22 23:39:20;;;;;;;205.60;159.77;;;20.70;39.50;;;;;;4342466;60;21196;-35
2021/12/22 23:50:55;;;;;;;210.07;158.30;;;20.70;39.50;;;;;;4396875;60;22156;-38
2021/12/22 23:55:57;;;;;;;196.98;150.60;;;20.70;39.50;;;;;;4347207;60;21063;-36
